sensor_id;sensor_type;location;lat;lon;timestamp;pressure;altitude;pressure_sealevel;temperature;humidity
42289;BME280;30230;47.520;19.016;2022-12-20T00:01:32;100873.47;;;-1.35;99.44
42289;BME280;30230;47.520;19.016;2022-12-20T00:03:33;100872.28;;;-1.45;100.00
42289;BME280;30230;47.520;19.016;2022-12-20T00:05:38;100874.88;;;-1.43;99.98
42289;BME280;30230;47.520;19.016;2022-12-20T00:07:39;100869.31;;;-1.39;99.90
42289;BME280;30230;47.520;19.016;2022-12-20T00:09:39;100874.63;;;-1.39;100.00
42289;BME280;30230;47.520;19.016;2022-12-20T00:11:40;100884.03;;;-1.49;99.89
42289;BME280;30230;47.520;19.016;2022-12-20T00:13:41;100888.47;;;-1.34;99.74
42289;BME280;30230;47.520;19.016;2022-12-20T00:15:41;100861.69;;;-1.45;100.00
42289;BME280;30230;47.520;19.016;2022-12-20T00:17:41;100879.72;;;-1.36;99.82
42289;BME280;30230;47.520;19.016;2022-12-20T00:19:43;100883.41;;;-1.38;99.78
42289;BME280;30230;47.520;19.016;2022-12-20T00:21:43;100887.09;;;-1.41;100.00
42289;BME280;30230;47.520;19.016;2022-12-20T00:23:44;100879.91;;;-1.39;99.98
42289;BME280;30230;47.520;19.016;2022-12-20T00:25:44;100878.47;;;-1.44;100.00
42289;BME280;30230;47.520;19.016;2022-12-20T00:27:48;100876.09;;;-1.49;99.98
42289;BME280;30230;47.520;19.016;2022-12-20T00:29:49;100867.19;;;-1.48;100.00
42289;BME280;30230;47.520;19.016;2022-12-20T00:31:49;100861.03;;;-1.48;100.00
42289;BME280;30230;47.520;19.016;2022-12-20T00:33:51;100865.13;;;-1.43;100.00
42289;BME280;30230;47.520;19.016;2022-12-20T00:35:54;100866.47;;;-1.36;99.80
42289;BME280;30230;47.520;19.016;2022-12-20T00:37:55;100857.28;;;-1.44;100.00
42289;BME280;30230;47.520;19.016;2022-12-20T00:39:55;100866.09;;;-1.29;98.95
42289;BME280;30230;47.520;19.016;2022-12-20T00:41:56;100862.53;;;-1.28;99.20
42289;BME280;30230;47.520;19.016;2022-12-20T00:43:56;100837.84;;;-1.45;99.13
42289;BME280;30230;47.520;19.016;2022-12-20T00:45:57;100847.44;;;-1.42;99.87
42289;BME280;30230;47.520;19.016;2022-12-20T00:47:57;100847.38;;;-1.26;99.66
42289;BME280;30230;47.520;19.016;2022-12-20T00:49:58;100848.00;;;-1.37;99.53
42289;BME280;30230;47.520;19.016;2022-12-20T00:51:58;100838.94;;;-1.33;99.64
42289;BME280;30230;47.520;19.016;2022-12-20T00:53:59;100825.75;;;-1.35;99.78
42289;BME280;30230;47.520;19.016;2022-12-20T00:55:59;100814.81;;;-1.28;99.53
42289;BME280;30230;47.520;19.016;2022-12-20T00:58:00;100830.81;;;-1.30;99.32
42289;BME280;30230;47.520;19.016;2022-12-20T01:00:00;100829.47;;;-1.37;99.70
42289;BME280;30230;47.520;19.016;2022-12-20T01:02:01;100811.91;;;-1.40;99.37
42289;BME280;30230;47.520;19.016;2022-12-20T01:04:02;100804.34;;;-1.46;99.20
42289;BME280;30230;47.520;19.016;2022-12-20T01:06:02;100828.97;;;-1.14;98.26
42289;BME280;30230;47.520;19.016;2022-12-20T01:08:03;100826.94;;;-1.24;98.20
42289;BME280;30230;47.520;19.016;2022-12-20T01:10:04;100823.63;;;-1.28;98.18
42289;BME280;30230;47.520;19.016;2022-12-20T01:12:04;100828.84;;;-1.26;98.65
42289;BME280;30230;47.520;19.016;2022-12-20T01:14:09;100820.66;;;-1.38;98.88
42289;BME280;30230;47.520;19.016;2022-12-20T01:16:20;100823.41;;;-1.39;98.25
42289;BME280;30230;47.520;19.016;2022-12-20T01:18:21;100834.88;;;-1.39;98.72
42289;BME280;30230;47.520;19.016;2022-12-20T01:20:22;100812.28;;;-1.46;98.78
42289;BME280;30230;47.520;19.016;2022-12-20T01:22:22;100839.91;;;-1.34;98.47
42289;BME280;30230;47.520;19.016;2022-12-20T01:24:22;100832.13;;;-1.37;98.97
42289;BME280;30230;47.520;19.016;2022-12-20T01:26:25;100824.25;;;-1.39;98.92
42289;BME280;30230;47.520;19.016;2022-12-20T01:28:26;100820.81;;;-1.41;99.31
42289;BME280;30230;47.520;19.016;2022-12-20T01:30:26;100806.63;;;-1.40;99.21
42289;BME280;30230;47.520;19.016;2022-12-20T01:32:27;100802.69;;;-1.33;99.12
42289;BME280;30230;47.520;19.016;2022-12-20T01:34:27;100803.72;;;-1.35;98.49
42289;BME280;30230;47.520;19.016;2022-12-20T01:36:31;100800.53;;;-1.26;98.29
42289;BME280;30230;47.520;19.016;2022-12-20T01:38:32;100797.38;;;-1.33;98.67
42289;BME280;30230;47.520;19.016;2022-12-20T01:40:33;100780.31;;;-1.43;98.57
42289;BME280;30230;47.520;19.016;2022-12-20T01:42:33;100786.00;;;-1.35;98.48
42289;BME280;30230;47.520;19.016;2022-12-20T01:46:34;100775.03;;;-1.43;98.81
42289;BME280;30230;47.520;19.016;2022-12-20T01:48:39;100783.34;;;-1.35;99.64
42289;BME280;30230;47.520;19.016;2022-12-20T01:50:41;100775.38;;;-1.19;99.21
42289;BME280;30230;47.520;19.016;2022-12-20T01:52:42;100758.00;;;-1.24;98.46
42289;BME280;30230;47.520;19.016;2022-12-20T01:54:54;100757.16;;;-1.25;98.05
42289;BME280;30230;47.520;19.016;2022-12-20T01:57:01;100736.63;;;-1.21;97.92
42289;BME280;30230;47.520;19.016;2022-12-20T01:59:03;100736.91;;;-1.26;97.49
42289;BME280;30230;47.520;19.016;2022-12-20T02:01:04;100730.16;;;-1.32;97.19
42289;BME280;30230;47.520;19.016;2022-12-20T02:03:07;100740.72;;;-1.01;96.63
42289;BME280;30230;47.520;19.016;2022-12-20T02:05:09;100741.38;;;-1.12;96.24
42289;BME280;30230;47.520;19.016;2022-12-20T02:07:12;100748.56;;;-1.14;96.91
42289;BME280;30230;47.520;19.016;2022-12-20T02:09:15;100738.69;;;-1.26;96.77
42289;BME280;30230;47.520;19.016;2022-12-20T02:11:23;100743.44;;;-1.32;97.63
42289;BME280;30230;47.520;19.016;2022-12-20T02:15:48;100742.84;;;-1.37;97.00
42289;BME280;30230;47.520;19.016;2022-12-20T02:18:06;100738.53;;;-1.23;97.11
42289;BME280;30230;47.520;19.016;2022-12-20T02:29:32;100745.06;;;-1.29;97.62
42289;BME280;30230;47.520;19.016;2022-12-20T02:31:42;100736.69;;;-1.37;97.56
42289;BME280;30230;47.520;19.016;2022-12-20T02:33:47;100723.53;;;-1.39;97.42
42289;BME280;30230;47.520;19.016;2022-12-20T02:35:48;100710.97;;;-1.21;97.32
42289;BME280;30230;47.520;19.016;2022-12-20T02:37:52;100734.00;;;-1.07;95.62
42289;BME280;30230;47.520;19.016;2022-12-20T02:39:52;100734.94;;;-1.08;95.71
42289;BME280;30230;47.520;19.016;2022-12-20T02:42:12;100741.75;;;-1.18;96.18
42289;BME280;30230;47.520;19.016;2022-12-20T02:44:15;100742.88;;;-1.22;96.79
42289;BME280;30230;47.520;19.016;2022-12-20T02:46:36;100723.28;;;-1.20;97.10
42289;BME280;30230;47.520;19.016;2022-12-20T02:48:37;100714.28;;;-1.32;96.69
42289;BME280;30230;47.520;19.016;2022-12-20T02:50:40;100725.44;;;-1.26;98.21
42289;BME280;30230;47.520;19.016;2022-12-20T02:52:44;100721.41;;;-1.18;97.82
42289;BME280;30230;47.520;19.016;2022-12-20T02:54:45;100710.66;;;-1.31;98.06
42289;BME280;30230;47.520;19.016;2022-12-20T02:56:58;100702.81;;;-1.32;98.23
42289;BME280;30230;47.520;19.016;2022-12-20T02:59:27;100709.56;;;-1.12;97.45
42289;BME280;30230;47.520;19.016;2022-12-20T03:01:36;100701.88;;;-1.17;96.94
42289;BME280;30230;47.520;19.016;2022-12-20T03:03:38;100695.34;;;-1.25;97.41
42289;BME280;30230;47.520;19.016;2022-12-20T03:05:44;100705.09;;;-1.26;97.78
42289;BME280;30230;47.520;19.016;2022-12-20T03:07:46;100698.84;;;-1.25;97.87
42289;BME280;30230;47.520;19.016;2022-12-20T03:09:46;100687.97;;;-1.20;97.36
42289;BME280;30230;47.520;19.016;2022-12-20T03:11:46;100694.69;;;-1.15;97.17
42289;BME280;30230;47.520;19.016;2022-12-20T03:13:47;100706.63;;;-1.08;96.23
42289;BME280;30230;47.520;19.016;2022-12-20T03:15:47;100701.13;;;-1.19;96.14
42289;BME280;30230;47.520;19.016;2022-12-20T03:17:48;100670.53;;;-1.39;97.40
42289;BME280;30230;47.520;19.016;2022-12-20T03:19:48;100691.75;;;-1.10;96.23
42289;BME280;30230;47.520;19.016;2022-12-20T03:21:49;100668.81;;;-1.25;95.46
42289;BME280;30230;47.520;19.016;2022-12-20T03:23:49;100680.47;;;-0.99;95.33
42289;BME280;30230;47.520;19.016;2022-12-20T03:25:50;100684.94;;;-1.14;94.99
42289;BME280;30230;47.520;19.016;2022-12-20T03:27:50;100683.91;;;-0.97;95.74
42289;BME280;30230;47.520;19.016;2022-12-20T03:29:51;100680.00;;;-1.06;94.35
42289;BME280;30230;47.520;19.016;2022-12-20T03:31:51;100682.19;;;-1.13;93.79
42289;BME280;30230;47.520;19.016;2022-12-20T03:33:51;100693.56;;;-1.11;94.67
42289;BME280;30230;47.520;19.016;2022-12-20T03:35:52;100691.00;;;-1.12;95.10
42289;BME280;30230;47.520;19.016;2022-12-20T03:37:52;100680.09;;;-1.22;94.62
42289;BME280;30230;47.520;19.016;2022-12-20T03:39:53;100708.50;;;-1.10;94.38
42289;BME280;30230;47.520;19.016;2022-12-20T03:41:53;100693.56;;;-1.11;93.94
42289;BME280;30230;47.520;19.016;2022-12-20T03:43:54;100683.31;;;-1.17;94.19
42289;BME280;30230;47.520;19.016;2022-12-20T03:45:54;100678.31;;;-1.21;94.30
42289;BME280;30230;47.520;19.016;2022-12-20T03:47:55;100679.16;;;-1.21;95.40
42289;BME280;30230;47.520;19.016;2022-12-20T03:49:55;100692.13;;;-1.16;94.58
42289;BME280;30230;47.520;19.016;2022-12-20T03:51:56;100689.47;;;-1.16;95.10
42289;BME280;30230;47.520;19.016;2022-12-20T03:53:56;100684.56;;;-1.22;94.64
42289;BME280;30230;47.520;19.016;2022-12-20T03:55:57;100692.31;;;-1.19;95.46
42289;BME280;30230;47.520;19.016;2022-12-20T03:57:58;100681.69;;;-1.19;95.15
42289;BME280;30230;47.520;19.016;2022-12-20T03:59:58;100670.88;;;-1.45;96.12
42289;BME280;30230;47.520;19.016;2022-12-20T04:01:59;100672.25;;;-1.38;96.07
42289;BME280;30230;47.520;19.016;2022-12-20T04:03:59;100677.19;;;-1.17;94.83
42289;BME280;30230;47.520;19.016;2022-12-20T04:06:00;100660.13;;;-1.27;95.04
42289;BME280;30230;47.520;19.016;2022-12-20T04:08:00;100656.16;;;-1.06;94.57
42289;BME280;30230;47.520;19.016;2022-12-20T04:10:01;100660.97;;;-0.98;93.46
42289;BME280;30230;47.520;19.016;2022-12-20T04:12:01;100653.31;;;-1.17;93.88
42289;BME280;30230;47.520;19.016;2022-12-20T04:14:02;100644.03;;;-1.10;94.35
42289;BME280;30230;47.520;19.016;2022-12-20T04:16:02;100646.66;;;-0.96;93.98
42289;BME280;30230;47.520;19.016;2022-12-20T04:18:03;100633.53;;;-0.97;93.65
42289;BME280;30230;47.520;19.016;2022-12-20T04:20:04;100633.31;;;-0.94;92.75
42289;BME280;30230;47.520;19.016;2022-12-20T04:22:18;100615.63;;;-1.08;92.63
42289;BME280;30230;47.520;19.016;2022-12-20T04:24:18;100621.13;;;-1.11;94.00
42289;BME280;30230;47.520;19.016;2022-12-20T04:26:19;100637.41;;;-1.03;94.04
42289;BME280;30230;47.520;19.016;2022-12-20T04:28:20;100628.88;;;-1.08;94.82
42289;BME280;30230;47.520;19.016;2022-12-20T04:30:20;100632.38;;;-1.22;93.78
42289;BME280;30230;47.520;19.016;2022-12-20T04:32:20;100638.63;;;-1.09;94.58
42289;BME280;30230;47.520;19.016;2022-12-20T04:34:21;100635.22;;;-1.25;95.02
42289;BME280;30230;47.520;19.016;2022-12-20T04:36:21;100638.72;;;-1.24;94.40
42289;BME280;30230;47.520;19.016;2022-12-20T04:38:22;100618.84;;;-1.32;94.32
42289;BME280;30230;47.520;19.016;2022-12-20T04:40:23;100650.66;;;-1.32;95.29
42289;BME280;30230;47.520;19.016;2022-12-20T04:42:24;100639.59;;;-1.38;96.03
42289;BME280;30230;47.520;19.016;2022-12-20T04:44:24;100635.13;;;-1.38;95.90
42289;BME280;30230;47.520;19.016;2022-12-20T04:46:25;100644.22;;;-1.27;95.62
42289;BME280;30230;47.520;19.016;2022-12-20T04:48:26;100639.09;;;-1.31;95.30
42289;BME280;30230;47.520;19.016;2022-12-20T04:50:27;100646.31;;;-1.33;95.93
42289;BME280;30230;47.520;19.016;2022-12-20T04:52:28;100649.03;;;-1.20;96.31
42289;BME280;30230;47.520;19.016;2022-12-20T04:54:46;100653.31;;;-1.17;95.83
42289;BME280;30230;47.520;19.016;2022-12-20T04:56:47;100646.69;;;-1.10;93.84
42289;BME280;30230;47.520;19.016;2022-12-20T04:58:49;100656.81;;;-1.31;94.88
42289;BME280;30230;47.520;19.016;2022-12-20T05:00:50;100643.09;;;-1.23;95.51
42289;BME280;30230;47.520;19.016;2022-12-20T05:02:53;100645.25;;;-1.30;94.96
42289;BME280;30230;47.520;19.016;2022-12-20T05:04:54;100636.28;;;-1.27;94.77
42289;BME280;30230;47.520;19.016;2022-12-20T05:06:54;100651.03;;;-1.09;93.66
42289;BME280;30230;47.520;19.016;2022-12-20T05:08:54;100664.09;;;-1.20;94.32
42289;BME280;30230;47.520;19.016;2022-12-20T05:10:55;100654.72;;;-1.26;95.04
42289;BME280;30230;47.520;19.016;2022-12-20T05:12:55;100658.88;;;-1.36;95.70
42289;BME280;30230;47.520;19.016;2022-12-20T05:14:56;100652.56;;;-1.34;95.12
42289;BME280;30230;47.520;19.016;2022-12-20T05:16:56;100666.38;;;-1.28;95.32
42289;BME280;30230;47.520;19.016;2022-12-20T05:18:56;100664.47;;;-1.41;96.62
42289;BME280;30230;47.520;19.016;2022-12-20T05:20:58;100664.84;;;-1.33;96.17
42289;BME280;30230;47.520;19.016;2022-12-20T05:23:17;100680.75;;;-1.33;95.07
42289;BME280;30230;47.520;19.016;2022-12-20T05:25:46;100677.91;;;-1.29;95.59
42289;BME280;30230;47.520;19.016;2022-12-20T05:28:05;100671.69;;;-1.28;95.73
42289;BME280;30230;47.520;19.016;2022-12-20T05:30:06;100669.41;;;-1.20;96.62
42289;BME280;30230;47.520;19.016;2022-12-20T05:32:07;100673.75;;;-1.19;95.57
42289;BME280;30230;47.520;19.016;2022-12-20T05:34:07;100681.69;;;-1.19;95.48
42289;BME280;30230;47.520;19.016;2022-12-20T05:36:08;100669.03;;;-1.28;95.61
42289;BME280;30230;47.520;19.016;2022-12-20T05:38:08;100671.03;;;-1.18;94.74
42289;BME280;30230;47.520;19.016;2022-12-20T05:40:09;100674.03;;;-1.10;95.27
42289;BME280;30230;47.520;19.016;2022-12-20T05:42:10;100668.16;;;-1.15;95.07
42289;BME280;30230;47.520;19.016;2022-12-20T05:44:10;100679.06;;;-1.05;93.67
42289;BME280;30230;47.520;19.016;2022-12-20T05:46:10;100658.78;;;-1.20;94.42
42289;BME280;30230;47.520;19.016;2022-12-20T05:48:11;100664.09;;;-1.06;94.03
42289;BME280;30230;47.520;19.016;2022-12-20T05:50:11;100653.97;;;-0.99;94.39
42289;BME280;30230;47.520;19.016;2022-12-20T05:52:12;100642.88;;;-1.20;94.14
42289;BME280;30230;47.520;19.016;2022-12-20T05:54:12;100647.25;;;-1.05;94.32
42289;BME280;30230;47.520;19.016;2022-12-20T05:56:13;100645.72;;;-1.09;93.78
42289;BME280;30230;47.520;19.016;2022-12-20T05:58:13;100635.44;;;-1.14;94.80
42289;BME280;30230;47.520;19.016;2022-12-20T06:00:14;100626.13;;;-1.21;94.67
42289;BME280;30230;47.520;19.016;2022-12-20T06:02:15;100621.31;;;-1.28;94.94
42289;BME280;30230;47.520;19.016;2022-12-20T06:04:15;100642.03;;;-1.21;94.82
42289;BME280;30230;47.520;19.016;2022-12-20T06:06:16;100633.63;;;-1.27;95.00
42289;BME280;30230;47.520;19.016;2022-12-20T06:08:16;100622.06;;;-1.26;95.12
42289;BME280;30230;47.520;19.016;2022-12-20T06:10:17;100618.66;;;-1.28;94.99
42289;BME280;30230;47.520;19.016;2022-12-20T06:12:17;100620.16;;;-1.24;95.54
42289;BME280;30230;47.520;19.016;2022-12-20T06:14:17;100619.91;;;-1.34;95.87
42289;BME280;30230;47.520;19.016;2022-12-20T06:16:18;100610.50;;;-1.40;96.65
42289;BME280;30230;47.520;19.016;2022-12-20T06:18:20;100621.69;;;-1.20;95.58
42289;BME280;30230;47.520;19.016;2022-12-20T06:20:21;100628.72;;;-1.34;96.30
42289;BME280;30230;47.520;19.016;2022-12-20T06:22:21;100633.22;;;-1.36;96.66
42289;BME280;30230;47.520;19.016;2022-12-20T06:24:22;100628.59;;;-1.32;95.92
42289;BME280;30230;47.520;19.016;2022-12-20T06:26:24;100629.75;;;-1.22;96.16
42289;BME280;30230;47.520;19.016;2022-12-20T06:28:24;100598.59;;;-1.33;95.16
42289;BME280;30230;47.520;19.016;2022-12-20T06:30:25;100591.31;;;-1.43;96.27
42289;BME280;30230;47.520;19.016;2022-12-20T06:32:25;100625.56;;;-1.26;96.04
42289;BME280;30230;47.520;19.016;2022-12-20T06:34:26;100619.41;;;-1.41;96.08
42289;BME280;30230;47.520;19.016;2022-12-20T06:36:26;100614.88;;;-1.39;95.91
42289;BME280;30230;47.520;19.016;2022-12-20T06:38:27;100614.56;;;-1.20;99.77
42289;BME280;30230;47.520;19.016;2022-12-20T06:40:27;100601.59;;;-1.24;98.49
42289;BME280;30230;47.520;19.016;2022-12-20T06:42:27;100588.56;;;-1.27;96.88
42289;BME280;30230;47.520;19.016;2022-12-20T06:44:28;100608.25;;;-1.32;95.87
42289;BME280;30230;47.520;19.016;2022-12-20T06:46:28;100605.38;;;-1.14;95.29
42289;BME280;30230;47.520;19.016;2022-12-20T06:48:29;100594.78;;;-1.14;94.30
42289;BME280;30230;47.520;19.016;2022-12-20T06:50:29;100596.69;;;-1.31;94.34
42289;BME280;30230;47.520;19.016;2022-12-20T06:52:30;100584.84;;;-1.25;93.68
42289;BME280;30230;47.520;19.016;2022-12-20T06:54:30;100593.81;;;-0.58;100.00
42289;BME280;30230;47.520;19.016;2022-12-20T06:56:30;100590.09;;;0.37;100.00
42289;BME280;30230;47.520;19.016;2022-12-20T06:58:31;100552.34;;;0.32;100.00
42289;BME280;30230;47.520;19.016;2022-12-20T07:00:31;100588.47;;;0.09;91.75
42289;BME280;30230;47.520;19.016;2022-12-20T07:02:32;100558.16;;;-0.14;91.49
42289;BME280;30230;47.520;19.016;2022-12-20T07:04:32;100593.91;;;-0.32;89.89
42289;BME280;30230;47.520;19.016;2022-12-20T07:06:32;100593.50;;;-0.53;91.41
42289;BME280;30230;47.520;19.016;2022-12-20T07:08:33;100601.34;;;-0.79;92.52
42289;BME280;30230;47.520;19.016;2022-12-20T07:10:35;100586.41;;;-0.94;94.28
42289;BME280;30230;47.520;19.016;2022-12-20T07:12:36;100579.69;;;-0.99;94.34
42289;BME280;30230;47.520;19.016;2022-12-20T07:14:36;100576.47;;;-0.90;93.25
42289;BME280;30230;47.520;19.016;2022-12-20T07:16:36;100602.16;;;-0.91;94.22
42289;BME280;30230;47.520;19.016;2022-12-20T07:18:37;100598.47;;;-1.02;93.86
42289;BME280;30230;47.520;19.016;2022-12-20T07:20:37;100591.09;;;-0.97;94.64
42289;BME280;30230;47.520;19.016;2022-12-20T07:22:38;100598.53;;;-0.90;94.24
42289;BME280;30230;47.520;19.016;2022-12-20T07:24:38;100589.00;;;-1.07;94.12
42289;BME280;30230;47.520;19.016;2022-12-20T07:26:38;100589.91;;;-0.93;94.72
42289;BME280;30230;47.520;19.016;2022-12-20T07:28:39;100604.25;;;-0.69;91.90
42289;BME280;30230;47.520;19.016;2022-12-20T07:30:40;100599.00;;;-0.83;91.86
42289;BME280;30230;47.520;19.016;2022-12-20T07:32:40;100614.06;;;-0.84;92.33
42289;BME280;30230;47.520;19.016;2022-12-20T07:34:41;100608.28;;;-0.76;92.06
42289;BME280;30230;47.520;19.016;2022-12-20T07:36:41;100614.84;;;-0.96;93.06
42289;BME280;30230;47.520;19.016;2022-12-20T07:38:41;100592.22;;;-1.16;93.08
42289;BME280;30230;47.520;19.016;2022-12-20T07:40:42;100615.41;;;-0.91;93.43
42289;BME280;30230;47.520;19.016;2022-12-20T07:42:42;100596.69;;;-1.02;93.31
42289;BME280;30230;47.520;19.016;2022-12-20T07:44:43;100595.53;;;-0.98;92.91
42289;BME280;30230;47.520;19.016;2022-12-20T07:46:43;100609.72;;;-0.85;92.00
42289;BME280;30230;47.520;19.016;2022-12-20T07:48:44;100601.31;;;-0.91;91.34
42289;BME280;30230;47.520;19.016;2022-12-20T07:50:44;100610.00;;;-0.89;91.62
42289;BME280;30230;47.520;19.016;2022-12-20T07:52:45;100596.47;;;-0.99;90.29
42289;BME280;30230;47.520;19.016;2022-12-20T07:54:52;100612.00;;;-0.93;91.84
42289;BME280;30230;47.520;19.016;2022-12-20T07:56:57;100604.25;;;-0.96;91.79
42289;BME280;30230;47.520;19.016;2022-12-20T07:59:00;100587.88;;;-1.02;91.84
42289;BME280;30230;47.520;19.016;2022-12-20T08:01:01;100590.97;;;-0.82;90.35
42289;BME280;30230;47.520;19.016;2022-12-20T08:03:08;100587.63;;;-0.85;90.89
42289;BME280;30230;47.520;19.016;2022-12-20T08:05:11;100575.63;;;-0.91;91.44
42289;BME280;30230;47.520;19.016;2022-12-20T08:07:12;100568.66;;;-1.06;92.09
42289;BME280;30230;47.520;19.016;2022-12-20T08:09:13;100567.78;;;-0.92;91.40
42289;BME280;30230;47.520;19.016;2022-12-20T08:11:15;100562.75;;;-0.97;91.52
42289;BME280;30230;47.520;19.016;2022-12-20T08:13:17;100570.31;;;-0.91;91.52
42289;BME280;30230;47.520;19.016;2022-12-20T08:15:18;100566.25;;;-0.96;91.64
42289;BME280;30230;47.520;19.016;2022-12-20T08:17:21;100561.06;;;-0.98;91.33
42289;BME280;30230;47.520;19.016;2022-12-20T08:19:21;100565.41;;;-0.97;92.33
42289;BME280;30230;47.520;19.016;2022-12-20T08:21:21;100560.28;;;-1.00;92.00
42289;BME280;30230;47.520;19.016;2022-12-20T08:23:22;100552.91;;;-0.95;91.84
42289;BME280;30230;47.520;19.016;2022-12-20T08:25:23;100529.75;;;-1.20;92.86
42289;BME280;30230;47.520;19.016;2022-12-20T08:27:23;100555.00;;;-1.00;92.74
42289;BME280;30230;47.520;19.016;2022-12-20T08:29:23;100567.63;;;-0.76;92.16
42289;BME280;30230;47.520;19.016;2022-12-20T08:31:24;100556.81;;;-0.73;91.18
42289;BME280;30230;47.520;19.016;2022-12-20T08:33:24;100555.09;;;-0.74;90.70
42289;BME280;30230;47.520;19.016;2022-12-20T08:35:25;100559.47;;;-0.73;91.53
42289;BME280;30230;47.520;19.016;2022-12-20T08:37:25;100549.75;;;-0.60;90.92
42289;BME280;30230;47.520;19.016;2022-12-20T08:39:25;100559.38;;;-0.72;90.36
42289;BME280;30230;47.520;19.016;2022-12-20T08:41:26;100551.03;;;-0.53;88.40
42289;BME280;30230;47.520;19.016;2022-12-20T08:43:26;100562.63;;;-0.54;89.04
42289;BME280;30230;47.520;19.016;2022-12-20T08:45:27;100558.38;;;-0.57;89.52
42289;BME280;30230;47.520;19.016;2022-12-20T08:47:28;100549.50;;;-0.70;89.04
42289;BME280;30230;47.520;19.016;2022-12-20T08:49:28;100542.94;;;-0.64;87.49
42289;BME280;30230;47.520;19.016;2022-12-20T08:51:29;100547.59;;;-0.68;89.33
42289;BME280;30230;47.520;19.016;2022-12-20T08:53:30;100546.63;;;-0.40;88.04
42289;BME280;30230;47.520;19.016;2022-12-20T08:55:30;100540.59;;;-0.29;85.79
42289;BME280;30230;47.520;19.016;2022-12-20T08:57:31;100543.91;;;-0.25;86.28
42289;BME280;30230;47.520;19.016;2022-12-20T08:59:31;100552.91;;;-0.41;87.74
42289;BME280;30230;47.520;19.016;2022-12-20T09:01:33;100563.19;;;-0.36;87.76
42289;BME280;30230;47.520;19.016;2022-12-20T09:03:34;100553.13;;;-0.31;88.33
42289;BME280;30230;47.520;19.016;2022-12-20T09:05:35;100539.41;;;-0.38;87.56
42289;BME280;30230;47.520;19.016;2022-12-20T09:07:35;100542.09;;;-0.25;88.35
42289;BME280;30230;47.520;19.016;2022-12-20T09:09:36;100542.31;;;-0.28;86.39
42289;BME280;30230;47.520;19.016;2022-12-20T09:11:38;100553.88;;;-0.29;86.63
42289;BME280;30230;47.520;19.016;2022-12-20T09:13:40;100546.22;;;-0.34;86.78
42289;BME280;30230;47.520;19.016;2022-12-20T09:15:41;100552.97;;;-0.15;85.70
42289;BME280;30230;47.520;19.016;2022-12-20T09:17:42;100541.69;;;-0.19;85.84
42289;BME280;30230;47.520;19.016;2022-12-20T09:19:43;100551.78;;;-0.11;86.22
42289;BME280;30230;47.520;19.016;2022-12-20T09:21:43;100553.59;;;-0.12;85.98
42289;BME280;30230;47.520;19.016;2022-12-20T09:23:44;100545.38;;;-0.21;85.48
42289;BME280;30230;47.520;19.016;2022-12-20T09:25:45;100545.72;;;-0.13;86.32
42289;BME280;30230;47.520;19.016;2022-12-20T09:27:45;100546.38;;;-0.10;85.17
42289;BME280;30230;47.520;19.016;2022-12-20T09:29:46;100550.44;;;-0.04;85.20
42289;BME280;30230;47.520;19.016;2022-12-20T09:31:48;100535.13;;;0.12;85.58
42289;BME280;30230;47.520;19.016;2022-12-20T09:33:48;100527.47;;;0.20;84.15
42289;BME280;30230;47.520;19.016;2022-12-20T09:35:49;100517.91;;;0.18;84.77
42289;BME280;30230;47.520;19.016;2022-12-20T09:37:49;100512.38;;;0.34;84.42
42289;BME280;30230;47.520;19.016;2022-12-20T09:39:50;100505.47;;;0.31;83.42
42289;BME280;30230;47.520;19.016;2022-12-20T09:41:53;100503.53;;;0.46;82.07
42289;BME280;30230;47.520;19.016;2022-12-20T09:43:54;100497.28;;;0.47;80.94
42289;BME280;30230;47.520;19.016;2022-12-20T09:45:58;100499.41;;;0.42;81.48
42289;BME280;30230;47.520;19.016;2022-12-20T09:47:59;100500.25;;;0.30;83.11
42289;BME280;30230;47.520;19.016;2022-12-20T09:49:59;100493.44;;;0.25;82.77
42289;BME280;30230;47.520;19.016;2022-12-20T09:54:27;100504.28;;;0.35;82.87
42289;BME280;30230;47.520;19.016;2022-12-20T09:56:35;100495.16;;;0.39;83.24
42289;BME280;30230;47.520;19.016;2022-12-20T09:59:10;100502.91;;;0.42;81.68
42289;BME280;30230;47.520;19.016;2022-12-20T10:01:21;100496.22;;;0.37;82.43
42289;BME280;30230;47.520;19.016;2022-12-20T10:03:28;100495.78;;;0.43;82.29
42289;BME280;30230;47.520;19.016;2022-12-20T10:08:06;100485.34;;;0.40;82.33
42289;BME280;30230;47.520;19.016;2022-12-20T10:10:43;100481.56;;;0.31;82.10
42289;BME280;30230;47.520;19.016;2022-12-20T10:13:05;100477.25;;;0.41;81.68
42289;BME280;30230;47.520;19.016;2022-12-20T10:20:37;100440.69;;;0.45;81.33
42289;BME280;30230;47.520;19.016;2022-12-20T10:22:29;100473.44;;;0.58;81.79
42289;BME280;30230;47.520;19.016;2022-12-20T10:24:32;100471.81;;;0.68;79.92
42289;BME280;30230;47.520;19.016;2022-12-20T10:26:33;100466.25;;;0.71;80.83
42289;BME280;30230;47.520;19.016;2022-12-20T10:28:34;100466.56;;;0.67;81.03
42289;BME280;30230;47.520;19.016;2022-12-20T10:30:35;100452.75;;;0.74;80.31
42289;BME280;30230;47.520;19.016;2022-12-20T10:32:36;100457.41;;;0.84;79.30
42289;BME280;30230;47.520;19.016;2022-12-20T10:34:36;100446.56;;;0.98;80.07
42289;BME280;30230;47.520;19.016;2022-12-20T10:36:37;100437.22;;;0.92;79.44
42289;BME280;30230;47.520;19.016;2022-12-20T10:38:45;100433.72;;;0.92;80.52
42289;BME280;30230;47.520;19.016;2022-12-20T10:42:54;100430.38;;;1.25;78.64
42289;BME280;30230;47.520;19.016;2022-12-20T10:44:55;100437.78;;;1.33;78.19
42289;BME280;30230;47.520;19.016;2022-12-20T10:46:57;100437.44;;;1.48;76.42
42289;BME280;30230;47.520;19.016;2022-12-20T10:49:34;100441.09;;;1.47;76.53
42289;BME280;30230;47.520;19.016;2022-12-20T10:51:36;100426.38;;;1.19;77.53
42289;BME280;30230;47.520;19.016;2022-12-20T10:53:48;100422.91;;;1.06;78.26
42289;BME280;30230;47.520;19.016;2022-12-20T10:55:51;100410.06;;;1.00;78.52
42289;BME280;30230;47.520;19.016;2022-12-20T10:57:51;100406.66;;;0.98;79.38